Time,TemperatureF,DewpointF,PressureIn,WindDirection,WindDirectionDegrees,WindSpeedMPH,WindSpeedGustMPH,Humidity,HourlyPrecipIn,Conditions,Clouds,dailyrainin,SolarRadiationWatts/m^2,SoftwareType,DateUTC
2013-07-25 00:00:00,56.6,54.6,29.88,ESE,105,2.0,4.0,93,0.00,RA,,0.00,0.0,WeatherDisplay:10.37,2013-07-24 23:00:00,
2013-07-25 00:05:00,56.6,54.6,29.88,ESE,109,2.0,3.0,93,0.00,RA,,0.00,0.0,WeatherDisplay:10.37,2013-07-24 23:05:00,
2013-07-25 00:10:00,56.8,55.1,29.88,ESE,118,2.0,3.0,94,0.00,RA,,0.00,0.0,WeatherDisplay:10.37,2013-07-24 23:10:00,
2013-07-25 00:15:00,57.0,55.3,29.88,SE,126,0.0,3.0,94,0.00,CLR,,0.00,0.0,WeatherDisplay:10.37,2013-07-24 23:15:00,
2013-07-25 00:20:00,57.1,55.4,29.88,SE,127,0.0,2.0,94,0.00,CLR,,0.00,0.0,WeatherDisplay:10.37,2013-07-24 23:20:00,
2013-07-25 00:25:00,57.2,55.5,29.88,SE,127,0.0,2.0,94,0.00,CLR,,0.00,0.0,WeatherDisplay:10.37,2013-07-24 23:25:00,
2013-07-25 00:30:00,57.2,55.5,29.88,South,182,0.0,4.0,94,0.00,CLR,,0.00,0.0,WeatherDisplay:10.37,2013-07-24 23:30:00,
2013-07-25 00:35:00,57.3,55.6,29.88,SSW,196,1.0,2.0,94,0.00,CLR,,0.00,0.0,WeatherDisplay:10.37,2013-07-24 23:35:00,
2013-07-25 00:40:00,57.4,55.7,29.88,SSW,196,1.0,3.0,94,0.00,CLR,,0.00,0.0,WeatherDisplay:10.37,2013-07-24 23:40:00,
2013-07-25 00:45:00,57.5,55.8,29.88,SSW,196,0.0,3.0,94,0.00,CLR,,0.00,0.0,WeatherDisplay:10.37,2013-07-24 23:45:00,
2013-07-25 00:50:00,57.6,55.9,29.88,South,181,1.0,5.0,94,0.00,CLR,,0.00,0.0,WeatherDisplay:10.37,2013-07-24 23:50:00,
2013-07-25 00:55:00,57.7,56.0,29.88,SSE,153,0.0,4.0,94,0.00,CLR,,0.00,0.0,WeatherDisplay:10.37,2013-07-24 23:55:00,
2013-07-25 01:00:00,57.9,56.2,29.88,SSE,151,0.0,2.0,94,0.00,CLR,,0.00,0.0,WeatherDisplay:10.37,2013-07-25 00:00:00,
2013-07-25 01:05:00,58.0,56.3,29.87,SSE,159,0.0,1.0,94,0.00,CLR,,0.00,0.0,WeatherDisplay:10.37,2013-07-25 00:05:00,
2013-07-25 01:15:00,58.0,56.0,29.87,SSE,159,0.0,1.0,93,0.00,CLR,,0.00,0.0,WeatherDisplay:10.37,2013-07-25 00:15:00,
2013-07-25 01:20:00,57.9,55.9,29.87,SSE,159,0.0,0.0,93,0.00,CLR,,0.00,0.0,WeatherDisplay:10.37,2013-07-25 00:20:00,
2013-07-25 01:30:00,57.7,55.7,29.87,SSE,159,0.0,1.0,93,0.00,CLR,,0.00,0.0,WeatherDisplay:10.37,2013-07-25 00:30:00,
2013-07-25 01:35:00,57.7,55.7,29.87,SSE,159,1.0,2.0,93,0.00,CLR,,0.00,0.0,WeatherDisplay:10.37,2013-07-25 00:35:00,
2013-07-25 01:40:00,57.6,55.6,29.87,SSE,159,1.0,2.0,93,0.00,CLR,,0.00,0.0,WeatherDisplay:10.37,2013-07-25 00:40:00,
2013-07-25 01:50:00,57.6,55.6,29.87,SSE,159,0.0,2.0,93,0.00,CLR,,0.00,0.0,WeatherDisplay:10.37,2013-07-25 00:50:00,
2013-07-25 01:55:00,57.5,55.5,29.87,SSE,159,1.0,2.0,93,0.00,CLR,,0.00,0.0,WeatherDisplay:10.37,2013-07-25 00:55:00,
2013-07-25 02:00:00,57.5,55.5,29.87,SSE,159,0.0,1.0,93,0.00,CLR,,0.00,0.0,WeatherDisplay:10.37,2013-07-25 01:00:00,
2013-07-25 02:05:00,57.4,55.4,29.87,SSE,159,0.0,1.0,93,0.00,CLR,,0.00,0.0,WeatherDisplay:10.37,2013-07-25 01:05:00,
2013-07-25 02:10:00,57.4,55.4,29.87,SSE,159,0.0,2.0,93,0.00,CLR,,0.00,0.0,WeatherDisplay:10.37,2013-07-25 01:10:00,
2013-07-25 02:15:00,57.5,55.8,29.87,SSE,159,0.0,1.0,94,0.00,CLR,,0.00,0.0,WeatherDisplay:10.37,2013-07-25 01:15:00,
2013-07-25 02:20:00,57.6,55.9,29.87,SSE,159,0.0,1.0,94,0.00,CLR,,0.00,0.0,WeatherDisplay:10.37,2013-07-25 01:20:00,
2013-07-25 02:25:00,57.7,56.0,29.87,SSE,159,0.0,1.0,94,0.00,CLR,,0.00,0.0,WeatherDisplay:10.37,2013-07-25 01:25:00,
2013-07-25 02:30:00,57.8,56.1,29.87,SSE,159,1.0,1.0,94,0.00,CLR,,0.00,0.0,WeatherDisplay:10.37,2013-07-25 01:30:00,
2013-07-25 02:35:00,57.8,56.1,29.87,SSE,159,0.0,1.0,94,0.00,CLR,,0.00,0.0,WeatherDisplay:10.37,2013-07-25 01:35:00,
2013-07-25 02:45:00,58.0,56.3,29.87,SSE,159,0.0,1.0,94,0.00,CLR,,0.00,0.0,WeatherDisplay:10.37,2013-07-25 01:45:00,
2013-07-25 02:55:00,58.1,56.4,29.86,SSE,159,1.0,3.0,94,0.00,CLR,,0.00,0.0,WeatherDisplay:10.37,2013-07-25 01:55:00,
2013-07-25 03:00:00,58.1,56.4,29.86,SSE,159,0.0,2.0,94,0.00,CLR,,0.00,0.0,WeatherDisplay:10.37,2013-07-25 02:00:00,
2013-07-25 03:05:00,58.2,56.5,29.86,SSE,159,1.0,2.0,94,0.00,CLR,,0.00,0.0,WeatherDisplay:10.37,2013-07-25 02:05:00,
2013-07-25 03:10:00,58.2,56.5,29.86,SSE,159,1.0,2.0,94,0.00,CLR,,0.00,0.0,WeatherDisplay:10.37,2013-07-25 02:10:00,
2013-07-25 03:20:00,58.3,56.6,29.85,SSE,159,1.0,2.0,94,0.00,CLR,,0.00,0.0,WeatherDisplay:10.37,2013-07-25 02:20:00,
2013-07-25 03:30:00,58.3,56.6,29.85,SSE,159,1.0,2.0,94,0.00,CLR,,0.00,0.0,WeatherDisplay:10.37,2013-07-25 02:30:00,
2013-07-25 03:40:00,58.2,56.5,29.85,East,96,1.0,2.0,94,0.00,CLR,,0.00,0.0,WeatherDisplay:10.37,2013-07-25 02:40:00,
2013-07-25 03:45:00,58.2,56.5,29.85,East,96,1.0,2.0,94,0.00,CLR,,0.00,0.0,WeatherDisplay:10.37,2013-07-25 02:45:00,
2013-07-25 03:50:00,58.3,56.6,29.84,East,97,2.0,3.0,94,0.00,CLR,,0.00,0.0,WeatherDisplay:10.37,2013-07-25 02:50:00,
2013-07-25 03:55:00,58.4,56.6,29.84,East,97,1.0,3.0,94,0.00,CLR,,0.00,0.0,WeatherDisplay:10.37,2013-07-25 02:55:00,
2013-07-25 04:00:00,58.4,56.7,29.84,East,97,2.0,3.0,94,0.00,CLR,,0.00,0.0,WeatherDisplay:10.37,2013-07-25 03:00:00,
2013-07-25 04:05:00,58.4,56.7,29.84,East,97,2.0,3.0,94,0.00,CLR,,0.00,0.0,WeatherDisplay:10.37,2013-07-25 03:05:00,
2013-07-25 04:10:00,58.4,56.7,29.85,East,97,0.0,3.0,94,0.00,CLR,,0.00,0.0,WeatherDisplay:10.37,2013-07-25 03:10:00,
2013-07-25 04:15:00,58.4,56.7,29.85,East,97,0.0,1.0,94,0.00,CLR,,0.00,0.0,WeatherDisplay:10.37,2013-07-25 03:15:00,
2013-07-25 04:20:00,58.4,56.7,29.85,East,97,0.0,2.0,94,0.00,CLR,,0.00,0.0,WeatherDisplay:10.37,2013-07-25 03:20:00,
2013-07-25 04:25:00,58.3,56.6,29.85,East,97,0.0,1.0,94,0.00,CLR,,0.00,0.0,WeatherDisplay:10.37,2013-07-25 03:25:00,
2013-07-25 04:30:00,58.2,56.5,29.85,East,97,0.0,1.0,94,0.00,CLR,,0.00,0.0,WeatherDisplay:10.37,2013-07-25 03:30:00,
2013-07-25 04:40:00,58.2,56.5,29.85,East,97,0.0,1.0,94,0.00,CLR,,0.00,0.0,WeatherDisplay:10.37,2013-07-25 03:40:00,
2013-07-25 04:45:00,58.1,56.4,29.85,East,97,0.0,1.0,94,0.00,CLR,,0.00,0.0,WeatherDisplay:10.37,2013-07-25 03:45:00,
2013-07-25 05:00:00,58.4,56.6,29.85,ENE,70,5.0,8.0,94,0.00,OVC,,0.00,0.0,WeatherDisplay:10.37,2013-07-25 04:00:00,
2013-07-25 05:05:00,58.6,56.8,29.85,ENE,72,5.0,7.0,94,0.00,OVC,,0.00,0.0,WeatherDisplay:10.37,2013-07-25 04:05:00,
2013-07-25 05:10:00,58.9,57.1,29.85,East,82,5.0,7.0,94,0.00,OVC,,0.00,0.0,WeatherDisplay:10.37,2013-07-25 04:10:00,
2013-07-25 05:15:00,59.0,57.3,29.85,East,80,3.0,7.0,94,0.00,OVC,,0.00,0.0,WeatherDisplay:10.37,2013-07-25 04:15:00,
2013-07-25 05:20:00,59.1,57.4,29.85,ENE,71,2.0,7.0,94,0.00,BKN,,0.00,5.0,WeatherDisplay:10.37,2013-07-25 04:20:00,
2013-07-25 05:25:00,59.2,57.5,29.85,ENE,77,6.0,8.0,94,0.00,BKN,,0.00,9.0,WeatherDisplay:10.37,2013-07-25 04:25:00,
2013-07-25 05:30:00,59.2,57.5,29.84,East,90,3.0,7.0,94,0.00,BKN,,0.00,9.0,WeatherDisplay:10.37,2013-07-25 04:30:00,
2013-07-25 05:40:00,59.3,57.6,29.84,ENE,75,2.0,5.0,94,0.00,BKN,,0.00,12.0,WeatherDisplay:10.37,2013-07-25 04:40:00,
2013-07-25 05:45:00,59.2,57.5,29.84,ENE,71,3.0,5.0,94,0.00,BKN,,0.00,16.0,WeatherDisplay:10.37,2013-07-25 04:45:00,
2013-07-25 05:50:00,59.2,57.5,29.84,ENE,70,1.0,5.0,94,0.00,BKN,,0.00,19.0,WeatherDisplay:10.37,2013-07-25 04:50:00,
2013-07-25 05:55:00,59.1,57.4,29.83,ENE,58,2.0,6.0,94,0.00,BKN,,0.00,19.0,WeatherDisplay:10.37,2013-07-25 04:55:00,
2013-07-25 06:00:00,59.1,57.4,29.83,ENE,62,2.0,7.0,94,0.00,BKN,,0.00,19.0,WeatherDisplay:10.37,2013-07-25 05:00:00,
2013-07-25 06:10:00,59.1,57.4,29.83,ENE,63,2.0,7.0,94,0.00,BKN,,0.00,23.0,WeatherDisplay:10.37,2013-07-25 05:10:00,
2013-07-25 06:15:00,59.1,57.4,29.83,ENE,69,3.0,8.0,94,0.00,BKN,,0.00,26.0,WeatherDisplay:10.37,2013-07-25 05:15:00,
2013-07-25 06:20:00,59.2,57.5,29.83,ENE,69,3.0,7.0,94,0.00,BKN,,0.00,39.0,WeatherDisplay:10.37,2013-07-25 05:20:00,
2013-07-25 06:25:00,59.3,57.6,29.83,ENE,67,6.0,9.0,94,0.00,BKN,,0.00,62.0,WeatherDisplay:10.37,2013-07-25 05:25:00,
2013-07-25 06:30:00,59.5,58.1,29.83,ENE,72,5.0,9.0,95,0.00,BKN,,0.00,69.0,WeatherDisplay:10.37,2013-07-25 05:30:00,
2013-07-25 06:35:00,59.5,58.1,29.83,ENE,65,5.0,9.0,95,0.00,SCT,,0.00,65.0,WeatherDisplay:10.37,2013-07-25 05:35:00,
2013-07-25 06:40:00,59.6,58.2,29.83,ENE,64,5.0,10.0,95,0.00,BKN,,0.00,49.0,WeatherDisplay:10.37,2013-07-25 05:40:00,
2013-07-25 06:50:00,59.5,58.1,29.83,ENE,75,3.0,7.0,95,0.00,BKN,,0.00,33.0,WeatherDisplay:10.37,2013-07-25 05:50:00,
2013-07-25 06:55:00,59.5,58.1,29.83,ENE,72,5.0,8.0,95,0.00,BKN,,0.00,32.0,WeatherDisplay:10.37,2013-07-25 05:55:00,
2013-07-25 07:00:00,59.5,58.1,29.83,East,83,3.0,7.0,95,0.00,BKN,,0.00,30.0,WeatherDisplay:10.37,2013-07-25 06:00:00,
2013-07-25 07:05:00,59.5,58.1,29.83,East,91,5.0,9.0,95,0.00,BKN,,0.00,39.0,WeatherDisplay:10.37,2013-07-25 06:05:00,
2013-07-25 07:10:00,59.5,58.1,29.83,East,81,3.0,8.0,95,0.00,BKN,,0.00,37.0,WeatherDisplay:10.37,2013-07-25 06:10:00,
2013-07-25 07:15:00,59.5,58.4,29.83,East,86,5.0,7.0,96,0.00,BKN,,0.00,32.0,WeatherDisplay:10.37,2013-07-25 06:15:00,
2013-07-25 07:20:00,59.5,58.4,29.83,East,87,3.0,7.0,96,0.00,BKN,,0.00,28.0,WeatherDisplay:10.37,2013-07-25 06:20:00,
2013-07-25 07:25:00,59.5,58.4,29.83,East,92,5.0,7.0,96,0.00,BKN,,0.00,21.0,WeatherDisplay:10.37,2013-07-25 06:25:00,
2013-07-25 07:30:00,59.5,58.4,29.83,East,95,5.0,7.0,96,0.00,BKN,,0.00,21.0,WeatherDisplay:10.37,2013-07-25 06:30:00,
2013-07-25 07:35:00,59.5,58.4,29.84,East,92,6.0,7.0,96,0.01,RA,,0.01,26.0,WeatherDisplay:10.37,2013-07-25 06:35:00,
2013-07-25 07:40:00,59.5,58.4,29.84,East,89,2.0,7.0,96,0.00,RA,,0.01,32.0,WeatherDisplay:10.37,2013-07-25 06:40:00,
2013-07-25 07:45:00,59.5,58.4,29.84,East,91,2.0,6.0,96,0.00,RA,,0.01,37.0,WeatherDisplay:10.37,2013-07-25 06:45:00,
2013-07-25 07:50:00,59.5,58.4,29.84,ESE,109,2.0,6.0,96,0.00,BKN,,0.01,30.0,WeatherDisplay:10.37,2013-07-25 06:50:00,
2013-07-25 07:55:00,59.5,58.4,29.84,ESE,104,1.0,5.0,96,0.01,RA,,0.02,28.0,WeatherDisplay:10.37,2013-07-25 06:55:00,
2013-07-25 08:00:00,59.4,58.3,29.84,ESE,103,0.0,3.0,96,0.00,RA,,0.02,42.0,WeatherDisplay:10.37,2013-07-25 07:00:00,
2013-07-25 08:05:00,59.4,58.3,29.85,ESE,120,0.0,3.0,96,0.00,RA,,0.02,44.0,WeatherDisplay:10.37,2013-07-25 07:05:00,
2013-07-25 08:10:00,59.5,58.4,29.84,East,98,0.0,2.0,96,0.00,BKN,,0.02,53.0,WeatherDisplay:10.37,2013-07-25 07:10:00,
2013-07-25 08:15:00,59.5,58.4,29.84,East,98,0.0,1.0,96,0.01,RA,,0.02,49.0,WeatherDisplay:10.37,2013-07-25 07:15:00,
2013-07-25 08:25:00,59.7,58.5,29.84,East,98,0.0,1.0,96,0.01,RA,,0.03,30.0,WeatherDisplay:10.37,2013-07-25 07:25:00,
2013-07-25 08:30:00,59.7,58.6,29.84,East,98,0.0,1.0,96,0.01,RA,,0.04,37.0,WeatherDisplay:10.37,2013-07-25 07:30:00,
2013-07-25 08:35:00,59.7,58.5,29.84,East,98,1.0,2.0,96,0.01,RA,,0.05,40.0,WeatherDisplay:10.37,2013-07-25 07:35:00,
2013-07-25 08:40:00,59.6,58.5,29.84,East,98,1.0,3.0,96,0.00,RA,,0.05,46.0,WeatherDisplay:10.37,2013-07-25 07:40:00,
2013-07-25 08:50:00,59.6,58.4,29.83,East,92,1.0,3.0,96,0.00,RA,,0.05,54.0,WeatherDisplay:10.37,2013-07-25 07:50:00,
2013-07-25 08:55:00,59.6,58.5,29.83,ENE,68,1.0,3.0,96,0.01,RA,,0.06,65.0,WeatherDisplay:10.37,2013-07-25 07:55:00,
2013-07-25 09:00:00,59.7,58.5,29.83,NNE,28,1.0,3.0,96,0.01,RA,,0.07,79.0,WeatherDisplay:10.37,2013-07-25 08:00:00,
2013-07-25 09:05:00,59.7,58.6,29.83,NNE,12,1.0,3.0,96,0.00,RA,,0.07,109.0,WeatherDisplay:10.37,2013-07-25 08:05:00,
2013-07-25 09:10:00,59.8,58.7,29.83,NNE,12,0.0,2.0,96,0.00,RA,,0.07,132.0,WeatherDisplay:10.37,2013-07-25 08:10:00,
2013-07-25 09:15:00,59.9,58.8,29.83,NNE,12,1.0,2.0,96,0.00,BKN,,0.07,134.0,WeatherDisplay:10.37,2013-07-25 08:15:00,
2013-07-25 09:20:00,59.9,59.1,29.83,NNE,12,0.0,2.0,97,0.00,BKN,,0.07,139.0,WeatherDisplay:10.37,2013-07-25 08:20:00,
2013-07-25 09:25:00,60.1,59.2,29.83,North,6,2.0,6.0,97,0.00,BKN,,0.07,127.0,WeatherDisplay:10.37,2013-07-25 08:25:00,
2013-07-25 09:30:00,60.2,59.3,29.83,North,3,2.0,5.0,97,0.00,BKN,,0.07,109.0,WeatherDisplay:10.37,2013-07-25 08:30:00,
2013-07-25 09:35:00,60.1,58.9,29.83,North,356,1.0,5.0,96,0.00,BKN,,0.07,79.0,WeatherDisplay:10.37,2013-07-25 08:35:00,
2013-07-25 09:40:00,59.9,58.8,29.83,NNE,18,1.0,5.0,96,0.00,BKN,,0.07,56.0,WeatherDisplay:10.37,2013-07-25 08:40:00,
2013-07-25 09:45:00,59.8,58.7,29.83,NE,37,2.0,4.0,96,0.00,BKN,,0.07,54.0,WeatherDisplay:10.37,2013-07-25 08:45:00,
2013-07-25 09:50:00,59.7,58.6,29.83,NE,37,1.0,2.0,96,0.00,BKN,,0.07,58.0,WeatherDisplay:10.37,2013-07-25 08:50:00,
2013-07-25 09:55:00,59.6,58.5,29.83,NE,43,0.0,3.0,96,0.00,BKN,,0.07,79.0,WeatherDisplay:10.37,2013-07-25 08:55:00,
2013-07-25 10:00:00,59.7,58.5,29.83,NE,49,1.0,6.0,96,0.00,BKN,,0.07,70.0,WeatherDisplay:10.37,2013-07-25 09:00:00,
2013-07-25 10:05:00,59.8,58.7,29.83,WNW,287,0.0,5.0,96,0.00,BKN,,0.07,58.0,WeatherDisplay:10.37,2013-07-25 09:05:00,
2013-07-25 10:10:00,59.9,58.7,29.83,West,266,1.0,3.0,96,0.00,BKN,,0.07,77.0,WeatherDisplay:10.37,2013-07-25 09:10:00,
2013-07-25 10:15:00,60.0,58.9,29.83,NNE,32,2.0,4.0,96,0.00,BKN,,0.07,86.0,WeatherDisplay:10.37,2013-07-25 09:15:00,
2013-07-25 10:20:00,60.1,59.0,29.83,East,79,2.0,6.0,96,0.00,BKN,,0.07,109.0,WeatherDisplay:10.37,2013-07-25 09:20:00,
2013-07-25 10:25:00,60.3,59.1,29.83,East,84,2.0,5.0,96,0.00,BKN,,0.07,181.0,WeatherDisplay:10.37,2013-07-25 09:25:00,
2013-07-25 10:30:00,60.4,59.3,29.83,NE,52,2.0,5.0,96,0.00,BKN,,0.07,128.0,WeatherDisplay:10.37,2013-07-25 09:30:00,
2013-07-25 10:35:00,60.5,59.6,29.83,NE,38,2.0,5.0,97,0.00,BKN,,0.07,163.0,WeatherDisplay:10.37,2013-07-25 09:35:00,
2013-07-25 10:40:00,60.7,59.9,29.83,NE,42,1.0,3.0,97,0.00,BKN,,0.07,146.0,WeatherDisplay:10.37,2013-07-25 09:40:00,
2013-07-25 10:45:00,60.9,60.0,29.83,NE,34,1.0,6.0,97,0.00,BKN,,0.07,146.0,WeatherDisplay:10.37,2013-07-25 09:45:00,
2013-07-25 10:50:00,61.0,59.8,29.83,NE,54,0.0,4.0,96,0.00,BKN,,0.07,121.0,WeatherDisplay:10.37,2013-07-25 09:50:00,
2013-07-25 11:00:00,61.4,60.6,29.82,NE,52,1.0,5.0,97,0.00,BKN,,0.07,257.0,WeatherDisplay:10.37,2013-07-25 10:00:00,
2013-07-25 11:05:00,61.6,60.8,29.83,ENE,60,1.0,5.0,97,0.00,BKN,,0.07,232.0,WeatherDisplay:10.37,2013-07-25 10:05:00,
2013-07-25 11:10:00,61.8,60.9,29.83,East,84,1.0,6.0,97,0.00,BKN,,0.07,322.0,WeatherDisplay:10.37,2013-07-25 10:10:00,
2013-07-25 11:15:00,61.9,61.1,29.83,ENE,75,3.0,9.0,97,0.00,BKN,,0.07,183.0,WeatherDisplay:10.37,2013-07-25 10:15:00,
2013-07-25 11:20:00,61.8,60.7,29.82,East,85,2.0,8.0,96,0.00,BKN,,0.07,218.0,WeatherDisplay:10.37,2013-07-25 10:20:00,
2013-07-25 11:25:00,61.8,60.7,29.82,East,90,1.0,5.0,96,0.00,BKN,,0.07,197.0,WeatherDisplay:10.37,2013-07-25 10:25:00,
2013-07-25 11:30:00,61.9,60.7,29.82,East,97,2.0,7.0,96,0.00,BKN,,0.07,163.0,WeatherDisplay:10.37,2013-07-25 10:30:00,
2013-07-25 11:35:00,62.0,60.8,29.82,ENE,77,3.0,8.0,96,0.00,BKN,,0.07,176.0,WeatherDisplay:10.37,2013-07-25 10:35:00,
2013-07-25 11:40:00,61.9,60.7,29.82,East,85,5.0,7.0,96,0.00,BKN,,0.07,139.0,WeatherDisplay:10.37,2013-07-25 10:40:00,
2013-07-25 11:50:00,61.7,60.5,29.82,ENE,74,2.0,6.0,96,0.00,BKN,,0.07,114.0,WeatherDisplay:10.37,2013-07-25 10:50:00,
2013-07-25 11:55:00,61.7,60.5,29.82,East,81,5.0,8.0,96,0.00,BKN,,0.07,120.0,WeatherDisplay:10.37,2013-07-25 10:55:00,
2013-07-25 12:00:00,61.6,60.4,29.82,East,82,2.0,7.0,96,0.00,BKN,,0.07,135.0,WeatherDisplay:10.37,2013-07-25 11:00:00,
2013-07-25 12:05:00,61.6,60.4,29.81,ENE,71,3.0,8.0,96,0.00,BKN,,0.07,132.0,WeatherDisplay:10.37,2013-07-25 11:05:00,
2013-07-25 12:10:00,61.6,60.4,29.81,ENE,72,2.0,6.0,96,0.00,BKN,,0.07,211.0,WeatherDisplay:10.37,2013-07-25 11:10:00,
2013-07-25 12:15:00,61.8,60.6,29.81,ENE,57,2.0,7.0,96,0.00,BKN,,0.07,274.0,WeatherDisplay:10.37,2013-07-25 11:15:00,
2013-07-25 12:20:00,61.9,60.8,29.81,NE,51,0.0,5.0,96,0.00,BKN,,0.07,418.0,WeatherDisplay:10.37,2013-07-25 11:20:00,
2013-07-25 12:25:00,62.3,61.1,29.81,ENE,63,5.0,8.0,96,0.00,BKN,,0.07,501.0,WeatherDisplay:10.37,2013-07-25 11:25:00,
2013-07-25 12:30:00,62.5,61.3,29.81,ENE,75,3.0,9.0,96,0.00,SCT,,0.07,429.0,WeatherDisplay:10.37,2013-07-25 11:30:00,
2013-07-25 12:35:00,62.9,61.7,29.81,ENE,76,5.0,10.0,96,0.00,SCT,,0.07,508.0,WeatherDisplay:10.37,2013-07-25 11:35:00,
2013-07-25 12:40:00,63.2,61.8,29.81,East,81,6.0,8.0,95,0.00,SCT,,0.07,427.0,WeatherDisplay:10.37,2013-07-25 11:40:00,
2013-07-25 12:45:00,63.6,62.1,29.81,East,86,6.0,10.0,95,0.00,SCT,,0.07,417.0,WeatherDisplay:10.37,2013-07-25 11:45:00,
2013-07-25 12:50:00,63.6,61.8,29.81,East,86,6.0,9.0,94,0.00,BKN,,0.07,200.0,WeatherDisplay:10.37,2013-07-25 11:50:00,
2013-07-25 12:55:00,63.5,61.7,29.81,ENE,70,5.0,8.0,94,0.00,BKN,,0.07,455.0,WeatherDisplay:10.37,2013-07-25 11:55:00,
2013-07-25 13:00:00,63.6,61.8,29.81,NE,56,5.0,8.0,94,0.00,BKN,,0.07,557.0,WeatherDisplay:10.37,2013-07-25 12:00:00,
2013-07-25 13:05:00,63.8,62.0,29.81,NE,52,3.0,9.0,94,0.01,RA,,0.08,369.0,WeatherDisplay:10.37,2013-07-25 12:05:00,
2013-07-25 13:15:00,63.6,61.5,29.81,ENE,62,3.0,8.0,93,0.00,RA,,0.08,422.0,WeatherDisplay:10.37,2013-07-25 12:15:00,
2013-07-25 13:20:00,63.8,61.7,29.81,ENE,72,3.0,10.0,93,0.00,BKN,,0.08,533.0,WeatherDisplay:10.37,2013-07-25 12:20:00,
2013-07-25 13:25:00,64.0,62.0,29.81,East,81,5.0,9.0,93,0.00,SCT,,0.08,366.0,WeatherDisplay:10.37,2013-07-25 12:25:00,
2013-07-25 13:30:00,64.1,62.0,29.81,East,81,1.0,10.0,93,0.00,BKN,,0.08,292.0,WeatherDisplay:10.37,2013-07-25 12:30:00,
2013-07-25 13:35:00,64.1,62.0,29.80,NE,52,5.0,9.0,93,0.00,BKN,,0.08,434.0,WeatherDisplay:10.37,2013-07-25 12:35:00,
2013-07-25 13:40:00,64.3,62.5,29.80,NE,37,5.0,12.0,94,0.00,BKN,,0.08,554.0,WeatherDisplay:10.37,2013-07-25 12:40:00,
2013-07-25 13:45:00,64.3,62.2,29.80,ENE,62,6.0,12.0,93,0.00,SCT,,0.08,411.0,WeatherDisplay:10.37,2013-07-25 12:45:00,
2013-07-25 13:50:00,64.4,62.3,29.80,ENE,76,6.0,12.0,93,0.00,SCT,,0.08,921.0,WeatherDisplay:10.37,2013-07-25 12:50:00,
2013-07-25 13:55:00,65.2,63.1,29.80,ENE,76,6.0,13.0,93,0.00,FEW,,0.08,933.0,WeatherDisplay:10.37,2013-07-25 12:55:00,
2013-07-25 14:00:00,65.8,63.4,29.80,East,85,3.0,13.0,92,0.00,CLR,,0.08,295.0,WeatherDisplay:10.37,2013-07-25 13:00:00,
2013-07-25 14:05:00,65.8,62.8,29.80,East,87,2.0,9.0,90,0.00,SCT,,0.08,302.0,WeatherDisplay:10.37,2013-07-25 13:05:00,
2013-07-25 14:10:00,65.6,62.6,29.80,East,84,2.0,8.0,90,0.00,BKN,,0.08,339.0,WeatherDisplay:10.37,2013-07-25 13:10:00,
2013-07-25 14:15:00,65.5,62.2,29.80,ENE,77,3.0,8.0,89,0.00,BKN,,0.08,457.0,WeatherDisplay:10.37,2013-07-25 13:15:00,
2013-07-25 14:20:00,65.4,62.1,29.80,ENE,76,5.0,8.0,89,0.00,BKN,,0.08,262.0,WeatherDisplay:10.37,2013-07-25 13:20:00,
2013-07-25 14:25:00,65.3,62.0,29.80,ENE,77,2.0,8.0,89,0.00,BKN,,0.08,454.0,WeatherDisplay:10.37,2013-07-25 13:25:00,
2013-07-25 14:30:00,65.5,62.5,29.80,ENE,61,5.0,8.0,90,0.00,BKN,,0.08,348.0,WeatherDisplay:10.37,2013-07-25 13:30:00,
2013-07-25 14:40:00,65.1,61.8,29.81,ENE,78,2.0,6.0,89,0.00,BKN,,0.08,272.0,WeatherDisplay:10.37,2013-07-25 13:40:00,
2013-07-25 14:45:00,65.1,62.1,29.80,East,99,1.0,5.0,90,0.00,BKN,,0.08,279.0,WeatherDisplay:10.37,2013-07-25 13:45:00,
2013-07-25 14:50:00,65.0,61.7,29.80,ENE,75,3.0,7.0,89,0.00,BKN,,0.08,265.0,WeatherDisplay:10.37,2013-07-25 13:50:00,
2013-07-25 14:55:00,64.9,61.6,29.80,NE,51,3.0,8.0,89,0.00,BKN,,0.08,244.0,WeatherDisplay:10.37,2013-07-25 13:55:00,
2013-07-25 15:00:00,64.8,61.8,29.81,NE,47,2.0,4.0,90,0.00,BKN,,0.08,265.0,WeatherDisplay:10.37,2013-07-25 14:00:00,
2013-07-25 15:05:00,64.7,61.7,29.80,NE,39,2.0,5.0,90,0.00,BKN,,0.08,253.0,WeatherDisplay:10.37,2013-07-25 14:05:00,
2013-07-25 15:15:00,64.3,61.6,29.80,North,2,5.0,7.0,91,0.00,BKN,,0.08,376.0,WeatherDisplay:10.37,2013-07-25 14:15:00,
2013-07-25 15:20:00,64.2,61.8,29.80,NNE,26,3.0,8.0,92,0.00,BKN,,0.08,190.0,WeatherDisplay:10.37,2013-07-25 14:20:00,
2013-07-25 15:30:00,64.3,61.9,29.80,NNE,13,3.0,7.0,92,0.00,BKN,,0.08,264.0,WeatherDisplay:10.37,2013-07-25 14:30:00,
2013-07-25 15:40:00,64.8,62.1,29.80,NE,53,7.0,10.0,91,0.00,SCT,,0.08,320.0,WeatherDisplay:10.37,2013-07-25 14:40:00,
2013-07-25 15:45:00,65.1,62.4,29.80,NE,47,5.0,12.0,91,0.00,SCT,,0.08,404.0,WeatherDisplay:10.37,2013-07-25 14:45:00,
2013-07-25 15:50:00,65.4,62.4,29.79,ENE,58,3.0,12.0,90,0.00,SCT,,0.08,722.0,WeatherDisplay:10.37,2013-07-25 14:50:00,
2013-07-25 15:55:00,65.6,62.3,29.79,NE,54,2.0,10.0,89,0.00,SCT,,0.08,278.0,WeatherDisplay:10.37,2013-07-25 14:55:00,
2013-07-25 16:00:00,65.6,62.3,29.79,ENE,63,3.0,7.0,89,0.00,BKN,,0.08,130.0,WeatherDisplay:10.37,2013-07-25 15:00:00,
2013-07-25 16:05:00,65.6,62.2,29.79,East,80,6.0,10.0,89,0.00,BKN,,0.08,137.0,WeatherDisplay:10.37,2013-07-25 15:05:00,
2013-07-25 16:10:00,65.3,61.9,29.80,East,85,5.0,7.0,89,0.00,BKN,,0.08,67.0,WeatherDisplay:10.37,2013-07-25 15:10:00,
2013-07-25 16:15:00,64.9,61.6,29.80,East,93,2.0,7.0,89,0.00,BKN,,0.08,60.0,WeatherDisplay:10.37,2013-07-25 15:15:00,
2013-07-25 16:25:00,64.4,61.7,29.80,ESE,111,3.0,6.0,91,0.01,RA,,0.09,79.0,WeatherDisplay:10.37,2013-07-25 15:25:00,
2013-07-25 16:30:00,64.1,61.4,29.80,ESE,105,3.0,7.0,91,0.04,RA,,0.13,130.0,WeatherDisplay:10.37,2013-07-25 15:30:00,
2013-07-25 16:40:00,63.7,61.6,29.80,East,79,2.0,6.0,93,0.00,RA,,0.13,227.0,WeatherDisplay:10.37,2013-07-25 15:40:00,
2013-07-25 16:50:00,63.8,62.1,29.80,ENE,73,6.0,9.0,94,0.00,BKN,,0.13,223.0,WeatherDisplay:10.37,2013-07-25 15:50:00,
2013-07-25 16:55:00,63.7,61.9,29.80,East,81,3.0,9.0,94,0.00,BKN,,0.13,214.0,WeatherDisplay:10.37,2013-07-25 15:55:00,
2013-07-25 17:00:00,63.7,61.9,29.80,East,84,3.0,7.0,94,0.00,BKN,,0.13,179.0,WeatherDisplay:10.37,2013-07-25 16:00:00,
2013-07-25 17:05:00,63.7,62.0,29.80,ENE,68,3.0,6.0,94,0.00,BKN,,0.13,186.0,WeatherDisplay:10.37,2013-07-25 16:05:00,
2013-07-25 17:10:00,63.9,62.1,29.80,ENE,63,1.0,3.0,94,0.00,BKN,,0.13,225.0,WeatherDisplay:10.37,2013-07-25 16:10:00,
2013-07-25 17:15:00,64.1,62.6,29.80,East,85,5.0,7.0,95,0.00,BKN,,0.13,199.0,WeatherDisplay:10.37,2013-07-25 16:15:00,
2013-07-25 17:20:00,64.0,62.2,29.80,ENE,78,3.0,6.0,94,0.00,BKN,,0.13,142.0,WeatherDisplay:10.37,2013-07-25 16:20:00,
2013-07-25 17:25:00,63.9,62.1,29.80,ENE,74,2.0,5.0,94,0.00,BKN,,0.13,125.0,WeatherDisplay:10.37,2013-07-25 16:25:00,
2013-07-25 17:30:00,63.7,62.0,29.80,ENE,71,3.0,7.0,94,0.00,BKN,,0.13,137.0,WeatherDisplay:10.37,2013-07-25 16:30:00,
2013-07-25 17:35:00,63.8,62.0,29.80,East,85,2.0,6.0,94,0.00,BKN,,0.13,181.0,WeatherDisplay:10.37,2013-07-25 16:35:00,
2013-07-25 17:40:00,63.8,62.0,29.80,East,90,5.0,8.0,94,0.00,BKN,,0.13,248.0,WeatherDisplay:10.37,2013-07-25 16:40:00,
2013-07-25 17:45:00,63.8,62.0,29.80,East,82,5.0,8.0,94,0.00,BKN,,0.13,225.0,WeatherDisplay:10.37,2013-07-25 16:45:00,
2013-07-25 17:55:00,63.9,62.1,29.79,ENE,57,3.0,10.0,94,0.00,FEW,,0.13,313.0,WeatherDisplay:10.37,2013-07-25 16:55:00,
2013-07-25 18:00:00,64.2,62.4,29.79,ENE,60,1.0,7.0,94,0.00,CLR,,0.13,504.0,WeatherDisplay:10.37,2013-07-25 17:00:00,
2013-07-25 18:10:00,65.1,63.3,29.79,NNE,25,3.0,6.0,94,0.00,CLR,,0.13,346.0,WeatherDisplay:10.37,2013-07-25 17:10:00,
2013-07-25 18:20:00,65.1,62.8,29.79,ENE,61,2.0,8.0,92,0.00,SCT,,0.13,207.0,WeatherDisplay:10.37,2013-07-25 17:20:00,
2013-07-25 18:25:00,65.0,62.7,29.79,ENE,72,1.0,7.0,92,0.00,SCT,,0.13,243.0,WeatherDisplay:10.37,2013-07-25 17:25:00,
2013-07-25 18:30:00,65.2,62.8,29.79,NE,50,2.0,8.0,92,0.00,SCT,,0.13,378.0,WeatherDisplay:10.37,2013-07-25 17:30:00,
2013-07-25 18:35:00,65.0,62.6,29.79,NE,43,2.0,7.0,92,0.00,SCT,,0.13,271.0,WeatherDisplay:10.37,2013-07-25 17:35:00,
2013-07-25 18:40:00,65.0,62.6,29.79,NE,55,3.0,8.0,92,0.00,SCT,,0.13,121.0,WeatherDisplay:10.37,2013-07-25 17:40:00,
2013-07-25 18:50:00,64.7,62.3,29.80,ENE,74,1.0,4.0,92,0.00,SCT,,0.13,121.0,WeatherDisplay:10.37,2013-07-25 17:50:00,
2013-07-25 19:00:00,64.4,61.7,29.80,ENE,67,2.0,5.0,91,0.00,BKN,,0.13,86.0,WeatherDisplay:10.37,2013-07-25 18:00:00,
2013-07-25 19:05:00,64.1,61.7,29.80,ENE,68,2.0,5.0,92,0.00,BKN,,0.13,83.0,WeatherDisplay:10.37,2013-07-25 18:05:00,
2013-07-25 19:10:00,63.9,61.5,29.80,ENE,60,5.0,7.0,92,0.00,BKN,,0.13,77.0,WeatherDisplay:10.37,2013-07-25 18:10:00,
2013-07-25 19:20:00,63.8,61.7,29.80,ENE,58,3.0,7.0,93,0.00,BKN,,0.13,100.0,WeatherDisplay:10.37,2013-07-25 18:20:00,
2013-07-25 19:25:00,63.6,61.5,29.80,ENE,61,2.0,7.0,93,0.00,BKN,,0.13,86.0,WeatherDisplay:10.37,2013-07-25 18:25:00,
2013-07-25 19:30:00,63.4,61.4,29.80,ENE,63,3.0,9.0,93,0.00,BKN,,0.13,62.0,WeatherDisplay:10.37,2013-07-25 18:30:00,
2013-07-25 19:35:00,63.2,61.4,29.80,ENE,72,5.0,7.0,94,0.00,BKN,,0.13,83.0,WeatherDisplay:10.37,2013-07-25 18:35:00,
2013-07-25 19:45:00,62.8,61.1,29.80,ENE,78,3.0,10.0,94,0.00,BKN,,0.13,98.0,WeatherDisplay:10.37,2013-07-25 18:45:00,
2013-07-25 19:50:00,62.8,61.3,29.80,East,81,6.0,10.0,95,0.00,SCT,,0.13,109.0,WeatherDisplay:10.37,2013-07-25 18:50:00,
2013-07-25 19:55:00,62.8,61.3,29.80,ENE,73,6.0,10.0,95,0.00,SCT,,0.13,100.0,WeatherDisplay:10.37,2013-07-25 18:55:00,
2013-07-25 20:00:00,62.7,61.3,29.80,ENE,74,7.0,10.0,95,0.00,SCT,,0.13,93.0,WeatherDisplay:10.37,2013-07-25 19:00:00,
2013-07-25 20:05:00,62.8,61.3,29.81,East,88,3.0,8.0,95,0.00,SCT,,0.13,53.0,WeatherDisplay:10.37,2013-07-25 19:05:00,
2013-07-25 20:10:00,62.8,61.3,29.81,ESE,104,5.0,9.0,95,0.00,BKN,,0.13,30.0,WeatherDisplay:10.37,2013-07-25 19:10:00,
2013-07-25 20:15:00,62.7,61.2,29.81,East,89,6.0,12.0,95,0.00,BKN,,0.13,26.0,WeatherDisplay:10.37,2013-07-25 19:15:00,
2013-07-25 20:25:00,62.7,61.2,29.80,East,85,3.0,7.0,95,0.00,RA,,0.13,30.0,WeatherDisplay:10.37,2013-07-25 19:25:00,
2013-07-25 20:30:00,62.6,61.2,29.80,East,88,3.0,8.0,95,0.00,RA,,0.13,35.0,WeatherDisplay:10.37,2013-07-25 19:30:00,
2013-07-25 20:35:00,62.6,61.1,29.81,East,88,3.0,7.0,95,0.00,BKN,,0.13,42.0,WeatherDisplay:10.37,2013-07-25 19:35:00,
2013-07-25 20:40:00,62.5,61.0,29.81,East,85,3.0,7.0,95,0.00,BKN,,0.13,37.0,WeatherDisplay:10.37,2013-07-25 19:40:00,
2013-07-25 20:45:00,62.5,61.0,29.81,East,83,3.0,7.0,95,0.00,BKN,,0.13,33.0,WeatherDisplay:10.37,2013-07-25 19:45:00,
2013-07-25 20:50:00,62.5,61.0,29.81,East,90,5.0,6.0,95,0.00,BKN,,0.13,25.0,WeatherDisplay:10.37,2013-07-25 19:50:00,
2013-07-25 20:55:00,62.5,61.0,29.80,East,94,6.0,7.0,95,0.00,BKN,,0.13,21.0,WeatherDisplay:10.37,2013-07-25 19:55:00,
2013-07-25 21:00:00,62.4,60.9,29.80,East,91,7.0,10.0,95,0.00,BKN,,0.13,12.0,WeatherDisplay:10.37,2013-07-25 20:00:00,
2013-07-25 21:05:00,62.2,60.7,29.81,East,80,6.0,8.0,95,0.00,BKN,,0.13,12.0,WeatherDisplay:10.37,2013-07-25 20:05:00,
2013-07-25 21:10:00,61.8,60.4,29.81,East,87,7.0,9.0,95,0.00,BKN,,0.13,9.0,WeatherDisplay:10.37,2013-07-25 20:10:00,
2013-07-25 21:15:00,61.6,60.2,29.81,East,86,7.0,10.0,95,0.00,BKN,,0.13,7.0,WeatherDisplay:10.37,2013-07-25 20:15:00,
2013-07-25 21:20:00,61.4,60.0,29.81,East,86,7.0,9.0,95,0.00,BKN,,0.13,5.0,WeatherDisplay:10.37,2013-07-25 20:20:00,
2013-07-25 21:25:00,61.3,60.2,29.81,East,93,6.0,10.0,96,0.00,OVC,,0.13,0.0,WeatherDisplay:10.37,2013-07-25 20:25:00,
2013-07-25 21:30:00,61.3,60.2,29.81,East,92,8.0,12.0,96,0.00,OVC,,0.13,0.0,WeatherDisplay:10.37,2013-07-25 20:30:00,
2013-07-25 21:35:00,61.2,60.1,29.82,East,89,7.0,10.0,96,0.00,OVC,,0.13,0.0,WeatherDisplay:10.37,2013-07-25 20:35:00,
2013-07-25 21:40:00,61.2,60.1,29.82,East,90,7.0,9.0,96,0.00,OVC,,0.13,0.0,WeatherDisplay:10.37,2013-07-25 20:40:00,
2013-07-25 21:45:00,61.1,59.9,29.82,East,85,6.0,9.0,96,0.00,OVC,,0.13,0.0,WeatherDisplay:10.37,2013-07-25 20:45:00,
2013-07-25 21:50:00,60.9,59.8,29.82,East,86,5.0,9.0,96,0.00,OVC,,0.13,0.0,WeatherDisplay:10.37,2013-07-25 20:50:00,
2013-07-25 21:55:00,60.8,59.7,29.82,East,84,6.0,9.0,96,0.00,OVC,,0.13,0.0,WeatherDisplay:10.37,2013-07-25 20:55:00,
2013-07-25 22:00:00,60.8,59.7,29.82,East,96,1.0,9.0,96,0.00,CLR,,0.13,0.0,WeatherDisplay:10.37,2013-07-25 21:00:00,
2013-07-25 22:05:00,60.8,59.7,29.83,ESE,104,6.0,8.0,96,0.00,CLR,,0.13,0.0,WeatherDisplay:10.37,2013-07-25 21:05:00,
2013-07-25 22:10:00,60.8,59.9,29.82,East,89,6.0,9.0,97,0.00,CLR,,0.13,0.0,WeatherDisplay:10.37,2013-07-25 21:10:00,
2013-07-25 22:20:00,60.5,59.4,29.82,East,98,5.0,7.0,96,0.00,CLR,,0.13,0.0,WeatherDisplay:10.37,2013-07-25 21:20:00,
2013-07-25 22:25:00,60.4,59.3,29.82,East,97,5.0,6.0,96,0.00,CLR,,0.13,0.0,WeatherDisplay:10.37,2013-07-25 21:25:00,
2013-07-25 22:30:00,60.2,59.1,29.82,East,94,3.0,6.0,96,0.00,CLR,,0.13,0.0,WeatherDisplay:10.37,2013-07-25 21:30:00,
2013-07-25 22:35:00,60.1,59.0,29.82,East,99,3.0,5.0,96,0.00,CLR,,0.13,0.0,WeatherDisplay:10.37,2013-07-25 21:35:00,
2013-07-25 22:40:00,59.9,58.8,29.82,East,96,3.0,5.0,96,0.00,CLR,,0.13,0.0,WeatherDisplay:10.37,2013-07-25 21:40:00,
2013-07-25 22:45:00,59.7,58.6,29.82,East,99,3.0,5.0,96,0.00,CLR,,0.13,0.0,WeatherDisplay:10.37,2013-07-25 21:45:00,
2013-07-25 22:50:00,59.5,58.4,29.82,ESE,106,2.0,4.0,96,0.00,CLR,,0.13,0.0,WeatherDisplay:10.37,2013-07-25 21:50:00,
2013-07-25 22:55:00,59.3,58.2,29.82,ESE,113,2.0,5.0,96,0.00,CLR,,0.13,0.0,WeatherDisplay:10.37,2013-07-25 21:55:00,
2013-07-25 23:00:00,59.1,58.0,29.82,ESE,116,1.0,4.0,96,0.00,CLR,,0.13,0.0,WeatherDisplay:10.37,2013-07-25 22:00:00,
2013-07-25 23:05:00,59.0,57.9,29.82,SE,125,1.0,3.0,96,0.00,CLR,,0.13,0.0,WeatherDisplay:10.37,2013-07-25 22:05:00,
2013-07-25 23:10:00,58.8,57.7,29.82,ESE,116,1.0,5.0,96,0.00,CLR,,0.13,0.0,WeatherDisplay:10.37,2013-07-25 22:10:00,
2013-07-25 23:15:00,58.6,57.5,29.82,ESE,109,2.0,4.0,96,0.00,CLR,,0.13,0.0,WeatherDisplay:10.37,2013-07-25 22:15:00,
2013-07-25 23:20:00,58.5,57.3,29.82,East,98,2.0,5.0,96,0.00,CLR,,0.13,0.0,WeatherDisplay:10.37,2013-07-25 22:20:00,
2013-07-25 23:25:00,58.2,56.8,29.82,East,97,2.0,3.0,95,0.00,CLR,,0.13,0.0,WeatherDisplay:10.37,2013-07-25 22:25:00,
2013-07-25 23:30:00,58.0,56.9,29.82,East,97,3.0,5.0,96,0.00,CLR,,0.13,0.0,WeatherDisplay:10.37,2013-07-25 22:30:00,
2013-07-25 23:35:00,57.9,56.8,29.82,East,91,1.0,5.0,96,0.00,CLR,,0.13,0.0,WeatherDisplay:10.37,2013-07-25 22:35:00,
2013-07-25 23:40:00,57.8,56.7,29.82,East,93,1.0,3.0,96,0.00,CLR,,0.13,0.0,WeatherDisplay:10.37,2013-07-25 22:40:00,
2013-07-25 23:45:00,57.6,56.1,29.82,East,93,2.0,3.0,95,0.00,CLR,,0.13,0.0,WeatherDisplay:10.37,2013-07-25 22:45:00,
2013-07-25 23:50:00,57.3,55.9,29.83,East,93,2.0,3.0,95,0.00,CLR,,0.13,0.0,WeatherDisplay:10.37,2013-07-25 22:50:00,
2013-07-25 23:55:00,57.1,56.0,29.83,East,97,2.0,5.0,96,0.00,CLR,,0.13,0.0,WeatherDisplay:10.37,2013-07-25 22:55:00,